YLEC

Details ICAO YLEC
Name Leigh Creek
Region Australia
Timezone Australia/Adelaide (UTC+9.5)
Plans Departing 9
Arriving 10
Stats Elevation 856 ft / 261 m (AMSL)
Location -30.599346° 138.427473°
Runways 2
Magnetic Variation 7.016° E
Sunrise 2018-05-27 21:34:15 UTC / 2018-05-28 07:04:15 Local
Sunset 2018-05-28 07:55:40 UTC / 2018-05-28 17:25:40 Local
Advertisement - Login to hide

Runways

ID Width Length Bearing (true) Bearing (mag) Surface Threshold Offset Overrun Length
11 98 ft / 30 m 5,601 ft / 1,707 m 121.00° 113.98° Asphalt 0 ft / 0 m 0 ft / 0 m
2 85 ft / 26 m 4,025 ft / 1,227 m 29.90° 22.88° Asphalt 0 ft / 0 m 0 ft / 0 m
20 85 ft / 26 m 4,025 ft / 1,227 m 209.90° 202.88° Asphalt 0 ft / 0 m 0 ft / 0 m
29 98 ft / 30 m 5,601 ft / 1,707 m 301.00° 293.98° Asphalt 0 ft / 0 m 0 ft / 0 m

Map

Weather


0- 5 10 15 20 25 30 35+ Temperature / ° C

Clouds and Precipitation
Forecast for 2018-05-28 00:00 UTC. Updated an hour ago

Ground ~20,000 ft ~40,000 ft Winds

METAR

YLEC 272300Z AUTO 08003KT //// // ////// 15/12 Q1019

TAF

Not found

Frequencies

Unicom 126.70 MHz Leigh Creek UNICOM
Warning: Do not use this data for real-world aviation or navigation. No guarantee of current accuracy is given.